Time;durP1;ratioP1;P1;durP2;ratioP2;P2;SDS_P1;SDS_P2;PMS_P1;PMS_P2;Temp;Humidity;BMP_temperature;BMP_pressure;BME280_temperature;BME280_humidity;BME280_pressure;Samples;Min_cycle;Max_cycle;Signal;HPM_P1;HPM_P2
2022/12/30 00:00:23;;;;;;;19.77;3.53;;;7.30;99.90;;;;;;5094658;28;20172;-71
2022/12/30 00:02:49;;;;;;;13.20;3.50;;;7.30;99.90;;;;;;5094625;28;20284;-71
2022/12/30 00:05:15;;;;;;;13.87;3.17;;;7.30;99.90;;;;;;5094192;28;20594;-71
2022/12/30 00:07:40;;;;;;;13.43;3.30;;;7.30;99.90;;;;;;5094243;28;20217;-71
2022/12/30 00:10:09;;;;;;;12.97;3.03;;;7.30;99.90;;;;;;5094594;28;20172;-71
2022/12/30 00:35:12;;;;;;;10.03;3.40;;;7.30;99.90;;;;;;5093728;28;20191;-71
2022/12/30 00:37:38;;;;;;;13.67;3.23;;;7.20;99.90;;;;;;5093801;28;20203;-71
2022/12/30 00:40:07;;;;;;;12.70;3.57;;;7.20;99.90;;;;;;5093720;28;20192;-72
2022/12/30 00:45:25;;;;;;;11.43;3.23;;;7.10;99.90;;;;;;5093824;28;20190;-71
2022/12/30 00:47:54;;;;;;;13.57;3.23;;;7.10;99.90;;;;;;5093986;28;20178;-71
2022/12/30 00:58:31;;;;;;;14.20;3.73;;;7.10;99.90;;;;;;5094052;28;20191;-71
2022/12/30 01:00:57;;;;;;;15.63;3.67;;;7.10;99.90;;;;;;5093550;28;20183;-71
2022/12/30 01:03:29;;;;;;;12.80;3.77;;;7.10;99.90;;;;;;5093006;28;20199;-73
2022/12/30 01:05:55;;;;;;;12.70;3.27;;;7.10;99.90;;;;;;5093530;28;20524;-71
2022/12/30 01:08:23;;;;;;;13.60;3.60;;;7.10;99.90;;;;;;5093436;28;20172;-71
2022/12/30 01:10:48;;;;;;;11.73;3.27;;;7.00;99.90;;;;;;5093525;28;20230;-70
2022/12/30 01:13:14;;;;;;;8.73;2.83;;;7.00;99.90;;;;;;5093414;28;20184;-70
2022/12/30 01:15:40;;;;;;;19.13;3.27;;;7.10;99.90;;;;;;5092148;28;20179;-71
2022/12/30 01:18:05;;;;;;;13.07;3.43;;;7.20;99.90;;;;;;5093121;28;20172;-72
2022/12/30 01:20:31;;;;;;;11.53;3.00;;;7.10;99.90;;;;;;5092089;28;20178;-71
2022/12/30 01:22:56;;;;;;;13.00;3.53;;;7.10;99.90;;;;;;5093037;28;20231;-71
2022/12/30 01:25:22;;;;;;;8.10;3.13;;;7.00;99.90;;;;;;5093181;28;20647;-71
2022/12/30 01:27:52;;;;;;;16.43;3.60;;;7.00;99.90;;;;;;5093304;28;20172;-72
2022/12/30 01:30:18;;;;;;;17.00;3.30;;;7.00;99.90;;;;;;5093309;28;20167;-71
2022/12/30 01:32:43;;;;;;;11.30;3.13;;;7.10;99.90;;;;;;5092952;28;20171;-71
2022/12/30 01:35:11;;;;;;;14.43;3.37;;;7.10;99.90;;;;;;5092156;28;20620;-70
2022/12/30 01:37:37;;;;;;;10.40;3.90;;;7.10;99.90;;;;;;5093167;28;20164;-72
2022/12/30 01:40:03;;;;;;;11.07;3.20;;;7.10;99.90;;;;;;5096260;28;20180;-72
2022/12/30 01:42:30;;;;;;;12.37;3.30;;;7.00;99.90;;;;;;5097192;28;20175;-71
2022/12/30 01:44:56;;;;;;;16.37;3.57;;;6.90;99.90;;;;;;5097451;28;20183;-71
2022/12/30 01:48:00;;;;;;;14.80;3.60;;;6.90;99.90;;;;;;5096855;28;20244;-71
2022/12/30 01:50:26;;;;;;;16.50;4.13;;;6.90;99.90;;;;;;5059192;28;20183;-71
2022/12/30 01:52:52;;;;;;;14.67;3.30;;;6.90;99.90;;;;;;5097216;28;20172;-69
2022/12/30 01:55:23;;;;;;;11.37;3.40;;;6.90;99.90;;;;;;5095763;28;20263;-71
2022/12/30 01:57:51;;;;;;;11.20;3.27;;;6.90;99.90;;;;;;5097151;28;20187;-70
2022/12/30 02:00:17;;;;;;;14.60;3.67;;;6.90;99.90;;;;;;5096990;28;20243;-70
2022/12/30 02:02:42;;;;;;;9.87;2.97;;;6.90;99.90;;;;;;5096622;28;20734;-71
2022/12/30 02:05:10;;;;;;;12.97;3.53;;;6.90;99.90;;;;;;5096922;28;20165;-71
2022/12/30 02:07:41;;;;;;;11.77;3.40;;;7.00;99.90;;;;;;5096800;28;20172;-70
2022/12/30 02:10:08;;;;;;;12.67;3.43;;;7.00;99.90;;;;;;5096924;28;20172;-70
2022/12/30 02:12:35;;;;;;;14.90;3.40;;;7.00;99.90;;;;;;5096984;28;20222;-70
2022/12/30 02:15:03;;;;;;;13.07;3.40;;;6.90;99.90;;;;;;5096728;28;20178;-70
2022/12/30 02:17:34;;;;;;;14.60;3.33;;;6.90;99.90;;;;;;5096287;28;20187;-70
2022/12/30 02:20:18;;;;;;;16.37;3.40;;;6.90;99.90;;;;;;5096672;28;20168;-70
2022/12/30 02:23:02;;;;;;;8.97;3.77;;;7.00;99.90;;;;;;5096465;28;20222;-70
2022/12/30 02:26:12;;;;;;;15.23;3.53;;;6.90;99.90;;;;;;5096624;28;20168;-70
2022/12/30 02:29:22;;;;;;;17.07;3.83;;;6.90;99.90;;;;;;5075618;28;20179;-70
2022/12/30 02:32:04;;;;;;;10.80;3.13;;;6.90;99.90;;;;;;5096130;28;20164;-70
2022/12/30 02:35:06;;;;;;;13.83;3.90;;;6.80;99.90;;;;;;5096391;28;20179;-70
2022/12/30 02:37:45;;;;;;;11.83;3.40;;;6.80;99.90;;;;;;5096403;28;20203;-70
2022/12/30 02:44:36;;;;;;;10.30;3.00;;;6.80;99.90;;;;;;5096069;28;20230;-70
2022/12/30 02:46:09;;;;;;;11.73;3.50;;;6.80;99.90;;;;;;5096035;28;20225;-70
2022/12/30 02:48:39;;;;;;;12.77;3.53;;;6.80;99.90;;;;;;5096380;28;20176;-70
2022/12/30 02:53:49;;;;;;;13.57;3.60;;;6.80;99.90;;;;;;5096333;28;20534;-70
2022/12/30 02:56:15;;;;;;;15.17;3.60;;;6.80;99.90;;;;;;5095828;28;20251;-69
2022/12/30 02:58:48;;;;;;;9.23;3.50;;;6.80;99.90;;;;;;5095873;28;20175;-69
2022/12/30 03:04:47;;;;;;;12.50;3.93;;;6.80;99.90;;;;;;5095743;28;20222;-70
2022/12/30 03:07:31;;;;;;;11.70;3.50;;;6.80;99.90;;;;;;5095634;28;20179;-70
2022/12/30 03:13:07;;;;;;;12.57;3.30;;;6.70;99.90;;;;;;5095892;28;20284;-69
2022/12/30 03:15:44;;;;;;;14.40;3.33;;;6.60;99.90;;;;;;5095456;28;20183;-70
2022/12/30 03:18:11;;;;;;;15.23;3.63;;;6.70;99.90;;;;;;5095679;28;20176;-70
2022/12/30 03:20:39;;;;;;;10.90;3.97;;;6.70;99.90;;;;;;5095619;28;20173;-69
2022/12/30 03:28:42;;;;;;;17.10;3.83;;;6.60;99.90;;;;;;5095509;28;20259;-71
2022/12/30 03:31:11;;;;;;;13.07;4.63;;;6.60;99.90;;;;;;5095365;28;20176;-70
2022/12/30 03:33:38;;;;;;;15.70;4.43;;;6.60;99.90;;;;;;5095116;28;20175;-70
2022/12/30 03:36:18;;;;;;;16.53;4.50;;;6.60;99.90;;;;;;5093928;28;20290;-70
2022/12/30 03:38:58;;;;;;;15.73;4.23;;;6.70;99.90;;;;;;5095135;28;20225;-70
2022/12/30 03:41:25;;;;;;;15.27;4.47;;;6.70;99.90;;;;;;5094519;28;20219;-70
2022/12/30 03:43:52;;;;;;;17.30;4.10;;;6.70;99.90;;;;;;5094604;28;20210;-70
2022/12/30 03:46:27;;;;;;;14.60;4.27;;;6.70;99.90;;;;;;5094975;28;20511;-70
2022/12/30 03:48:52;;;;;;;16.50;3.83;;;6.70;99.90;;;;;;5094832;28;20167;-70
2022/12/30 03:51:18;;;;;;;11.90;3.77;;;6.70;99.90;;;;;;5094771;28;20175;-70
2022/12/30 03:53:44;;;;;;;12.40;4.13;;;6.70;99.90;;;;;;5094811;28;20168;-70
2022/12/30 03:56:09;;;;;;;14.73;3.67;;;6.70;99.90;;;;;;5094546;28;20168;-70
2022/12/30 03:58:35;;;;;;;13.90;3.30;;;6.60;99.90;;;;;;5094387;28;20254;-70
2022/12/30 04:01:00;;;;;;;13.57;4.00;;;6.70;99.90;;;;;;5093029;28;20534;-69
2022/12/30 04:03:26;;;;;;;19.03;4.07;;;6.70;99.90;;;;;;5094254;28;20404;-70
2022/12/30 04:05:55;;;;;;;11.80;3.50;;;6.60;99.90;;;;;;5093241;28;20175;-70
2022/12/30 04:08:21;;;;;;;14.93;3.57;;;6.70;99.90;;;;;;5094558;28;20312;-69
2022/12/30 04:10:47;;;;;;;21.30;4.10;;;6.60;99.90;;;;;;5094252;28;20392;-70
2022/12/30 04:13:13;;;;;;;12.87;3.47;;;6.60;99.90;;;;;;5094221;28;20230;-70
2022/12/30 04:15:38;;;;;;;12.67;3.80;;;6.60;99.90;;;;;;5094127;28;20191;-70
2022/12/30 04:18:04;;;;;;;17.93;3.73;;;6.70;99.90;;;;;;5093764;28;20175;-70
2022/12/30 04:20:30;;;;;;;12.80;3.83;;;6.70;99.90;;;;;;5094008;28;20171;-70
2022/12/30 04:22:57;;;;;;;13.63;3.50;;;6.60;99.90;;;;;;5094068;28;20195;-69
2022/12/30 04:25:24;;;;;;;13.50;3.63;;;6.70;99.90;;;;;;5094232;28;20182;-70
2022/12/30 04:27:49;;;;;;;13.70;3.83;;;6.60;99.90;;;;;;5093790;28;20176;-70
2022/12/30 04:30:15;;;;;;;11.77;3.83;;;6.60;99.90;;;;;;5093907;28;20233;-70
2022/12/30 04:32:40;;;;;;;14.80;3.60;;;6.60;99.90;;;;;;5093790;28;20168;-70
2022/12/30 04:35:06;;;;;;;10.97;3.77;;;6.60;99.90;;;;;;5093757;28;20631;-70
2022/12/30 04:37:32;;;;;;;10.40;3.53;;;6.60;99.90;;;;;;5093982;28;20172;-70
2022/12/30 04:39:58;;;;;;;11.87;3.83;;;6.60;99.90;;;;;;5093393;28;20179;-70
2022/12/30 04:42:23;;;;;;;11.53;3.50;;;6.60;99.90;;;;;;5093211;28;20255;-70
2022/12/30 04:44:49;;;;;;;20.30;4.07;;;6.60;99.90;;;;;;5093624;28;20213;-70
2022/12/30 04:47:15;;;;;;;14.53;3.83;;;6.70;99.90;;;;;;5093351;28;20179;-70
2022/12/30 04:49:40;;;;;;;13.73;3.60;;;6.60;99.90;;;;;;5093629;28;20207;-70
2022/12/30 04:52:06;;;;;;;11.47;3.80;;;6.70;99.90;;;;;;5093278;28;20216;-70
2022/12/30 04:54:32;;;;;;;14.83;3.97;;;6.70;99.90;;;;;;5092090;28;20221;-70
2022/12/30 04:56:58;;;;;;;14.13;4.07;;;6.60;99.90;;;;;;5091692;28;20632;-70
2022/12/30 04:59:23;;;;;;;16.17;4.23;;;6.70;99.90;;;;;;5093338;28;20212;-70
2022/12/30 05:01:49;;;;;;;14.20;3.83;;;6.70;99.90;;;;;;5093592;28;20180;-70
2022/12/30 05:04:15;;;;;;;14.37;4.03;;;6.70;99.90;;;;;;5093551;28;20651;-70
2022/12/30 05:06:40;;;;;;;10.67;3.73;;;6.70;99.90;;;;;;5092796;28;20167;-71
2022/12/30 05:09:06;;;;;;;14.00;3.83;;;6.60;99.90;;;;;;5091816;28;20304;-70
2022/12/30 05:11:31;;;;;;;11.73;4.70;;;6.60;99.90;;;;;;5091236;28;20180;-70
2022/12/30 05:13:57;;;;;;;11.97;4.20;;;6.60;99.90;;;;;;5092300;28;20196;-70
2022/12/30 05:16:23;;;;;;;14.63;4.47;;;6.50;99.90;;;;;;5093329;28;20174;-69
2022/12/30 05:18:48;;;;;;;13.17;4.90;;;6.50;99.90;;;;;;5093155;28;20183;-71
2022/12/30 05:21:14;;;;;;;18.50;5.00;;;6.50;99.90;;;;;;5092988;28;20191;-70
2022/12/30 05:26:23;;;;;;;12.37;4.47;;;6.50;99.90;;;;;;5092688;28;20175;-70
2022/12/30 05:28:49;;;;;;;15.23;5.23;;;6.50;99.90;;;;;;5092891;28;20172;-71
2022/12/30 05:31:16;;;;;;;13.97;4.87;;;6.50;99.90;;;;;;5093291;28;20168;-70
2022/12/30 05:33:43;;;;;;;19.70;5.63;;;6.50;99.90;;;;;;5092910;28;20168;-70
2022/12/30 05:36:09;;;;;;;13.77;5.10;;;6.50;99.90;;;;;;5092826;28;20633;-70
2022/12/30 05:38:36;;;;;;;14.10;5.60;;;6.50;99.90;;;;;;5092886;28;20183;-70
2022/12/30 05:41:02;;;;;;;13.50;5.40;;;6.60;99.90;;;;;;5092146;28;20734;-70
2022/12/30 05:43:28;;;;;;;12.70;4.87;;;6.60;99.90;;;;;;5092866;28;20264;-71
2022/12/30 05:45:53;;;;;;;9.93;5.53;;;6.70;99.90;;;;;;5092557;28;20254;-72
2022/12/30 05:48:19;;;;;;;16.40;5.30;;;6.70;99.90;;;;;;5092820;28;20219;-71
2022/12/30 05:50:48;;;;;;;16.37;5.00;;;6.70;99.90;;;;;;5092503;28;20653;-71
2022/12/30 05:53:14;;;;;;;11.33;4.43;;;6.60;99.90;;;;;;5092537;28;20180;-71
2022/12/30 05:55:39;;;;;;;12.33;4.40;;;6.70;99.90;;;;;;5092168;28;20175;-70
2022/12/30 05:58:05;;;;;;;13.13;5.07;;;6.60;99.90;;;;;;5092637;28;20202;-69
2022/12/30 06:00:30;;;;;;;10.83;5.00;;;6.60;99.90;;;;;;5091091;28;20168;-70
2022/12/30 06:02:56;;;;;;;9.53;4.30;;;6.60;99.90;;;;;;5092404;28;20655;-70
2022/12/30 06:05:22;;;;;;;11.07;4.20;;;6.70;99.90;;;;;;5092716;28;20176;-72
2022/12/30 06:07:48;;;;;;;15.50;4.67;;;6.70;99.90;;;;;;5092281;28;20212;-71
2022/12/30 06:10:14;;;;;;;12.07;4.83;;;6.70;99.90;;;;;;5092322;28;20192;-71
2022/12/30 06:12:40;;;;;;;11.47;4.47;;;6.80;99.90;;;;;;5092244;28;20689;-71
2022/12/30 06:15:06;;;;;;;12.77;3.73;;;6.80;99.90;;;;;;5092293;28;20182;-71
2022/12/30 06:17:32;;;;;;;13.60;3.67;;;6.80;99.90;;;;;;5092516;28;20171;-71
2022/12/30 06:19:57;;;;;;;8.17;4.23;;;6.90;99.90;;;;;;5092043;28;20168;-71
2022/12/30 06:22:23;;;;;;;13.03;4.43;;;6.90;99.90;;;;;;5091771;28;20203;-71
2022/12/30 06:24:49;;;;;;;10.07;3.70;;;6.90;99.90;;;;;;5093215;28;20714;-71
2022/12/30 06:27:14;;;;;;;13.00;3.57;;;7.00;99.90;;;;;;5095669;28;20171;-71
2022/12/30 06:29:40;;;;;;;8.03;3.30;;;7.00;99.90;;;;;;5095813;28;20631;-70
2022/12/30 06:32:05;;;;;;;7.40;3.60;;;7.00;99.90;;;;;;5096101;28;20231;-70
2022/12/30 06:34:31;;;;;;;9.43;3.50;;;7.10;99.90;;;;;;5094283;28;20198;-71
2022/12/30 06:36:57;;;;;;;9.67;3.57;;;7.10;99.90;;;;;;5094306;28;20172;-71
2022/12/30 06:39:22;;;;;;;7.87;3.43;;;7.10;99.90;;;;;;5095802;28;20647;-70
2022/12/30 06:41:48;;;;;;;8.40;3.30;;;7.10;99.90;;;;;;5095454;28;20220;-71
2022/12/30 06:44:14;;;;;;;9.00;3.40;;;7.10;99.90;;;;;;5095546;28;20720;-71
2022/12/30 06:46:39;;;;;;;7.50;3.70;;;7.20;99.90;;;;;;5095901;28;20251;-70
2022/12/30 06:49:05;;;;;;;11.40;3.40;;;7.20;99.90;;;;;;5093796;28;20533;-70
2022/12/30 06:51:30;;;;;;;11.07;3.47;;;7.30;99.90;;;;;;5095343;28;20277;-69
2022/12/30 06:53:56;;;;;;;9.23;2.90;;;7.30;99.90;;;;;;5095584;28;20530;-70
2022/12/30 06:56:22;;;;;;;9.97;3.40;;;7.30;99.90;;;;;;5094884;28;20252;-71
2022/12/30 06:58:47;;;;;;;9.70;3.47;;;7.30;99.90;;;;;;5094838;28;20646;-71
2022/12/30 07:01:13;;;;;;;10.30;3.73;;;7.30;99.90;;;;;;5095206;28;20246;-71
2022/12/30 07:03:38;;;;;;;7.87;2.77;;;7.30;99.90;;;;;;5095277;28;20727;-70
2022/12/30 07:06:05;;;;;;;8.70;3.10;;;7.30;99.90;;;;;;5094683;28;20175;-70
2022/12/30 07:08:30;;;;;;;8.43;3.13;;;7.40;99.90;;;;;;5094895;28;20235;-71
2022/12/30 07:10:56;;;;;;;9.07;3.57;;;7.40;99.90;;;;;;5094992;28;20262;-70
2022/12/30 07:13:22;;;;;;;8.93;3.03;;;7.40;99.90;;;;;;5095185;28;20605;-70
2022/12/30 07:15:47;;;;;;;7.50;3.07;;;7.40;99.90;;;;;;5094713;28;20233;-70
2022/12/30 07:18:13;;;;;;;5.93;2.67;;;7.40;99.90;;;;;;5094771;28;20176;-70
2022/12/30 07:20:39;;;;;;;6.13;2.70;;;7.50;99.90;;;;;;5094720;28;20176;-70
2022/12/30 07:23:04;;;;;;;7.67;3.40;;;7.40;99.90;;;;;;5094561;28;20203;-70
2022/12/30 07:25:30;;;;;;;2.87;2.43;;;7.50;99.90;;;;;;5094713;28;20187;-71
2022/12/30 07:27:58;;;;;;;2.83;2.53;;;7.50;99.90;;;;;;5095047;28;20164;-70
2022/12/30 07:30:24;;;;;;;6.90;2.77;;;7.50;99.90;;;;;;5094960;28;20164;-70
2022/12/30 07:32:49;;;;;;;6.20;3.03;;;7.50;99.90;;;;;;5093473;28;20168;-71
2022/12/30 07:35:15;;;;;;;4.50;2.50;;;7.50;99.90;;;;;;5094192;28;20238;-70
2022/12/30 07:37:41;;;;;;;5.47;2.60;;;7.50;99.90;;;;;;5092972;28;20180;-71
2022/12/30 07:40:07;;;;;;;7.27;2.70;;;7.50;99.90;;;;;;5094102;28;20195;-71
2022/12/30 07:42:33;;;;;;;5.50;2.67;;;7.50;99.90;;;;;;5075527;28;20199;-71
2022/12/30 07:44:58;;;;;;;9.83;3.23;;;7.50;99.90;;;;;;5094367;28;20203;-70
2022/12/30 07:47:24;;;;;;;6.13;2.73;;;7.60;99.90;;;;;;5094419;28;20619;-70
2022/12/30 07:49:50;;;;;;;5.10;2.77;;;7.60;99.90;;;;;;5094432;28;20172;-70
2022/12/30 07:52:15;;;;;;;8.43;3.07;;;7.60;99.90;;;;;;5093771;28;20164;-71
2022/12/30 07:54:41;;;;;;;7.57;2.50;;;7.60;99.90;;;;;;5093528;28;20175;-70
2022/12/30 07:57:06;;;;;;;6.27;2.90;;;7.60;99.90;;;;;;5094261;28;20243;-70
2022/12/30 07:59:32;;;;;;;5.70;3.27;;;7.70;99.90;;;;;;5094079;28;20172;-71
2022/12/30 08:01:58;;;;;;;5.40;3.13;;;7.60;99.90;;;;;;5094125;28;20200;-70
2022/12/30 08:04:24;;;;;;;6.20;3.47;;;7.70;99.90;;;;;;5092331;28;20235;-70
2022/12/30 08:06:49;;;;;;;7.80;2.90;;;7.70;99.90;;;;;;5093906;28;20168;-72
2022/12/30 08:09:15;;;;;;;5.17;2.40;;;7.70;99.90;;;;;;5093778;28;20168;-70
2022/12/30 08:11:41;;;;;;;6.37;2.50;;;7.70;99.90;;;;;;5093654;28;20168;-71
2022/12/30 08:14:07;;;;;;;4.67;2.60;;;7.70;99.90;;;;;;5093816;28;20198;-70
2022/12/30 08:16:32;;;;;;;8.83;2.60;;;7.70;99.90;;;;;;5092465;28;20167;-70
2022/12/30 08:18:58;;;;;;;5.23;2.40;;;7.70;99.90;;;;;;5092214;28;20541;-71
2022/12/30 08:21:24;;;;;;;8.60;3.00;;;7.80;99.90;;;;;;5092392;28;20172;-70
2022/12/30 08:23:49;;;;;;;6.03;2.97;;;7.80;99.90;;;;;;5093370;28;20238;-70
2022/12/30 08:26:20;;;;;;;4.50;2.47;;;7.80;99.90;;;;;;5093745;28;20167;-70
2022/12/30 08:28:46;;;;;;;10.43;2.50;;;7.80;99.90;;;;;;5093845;28;20164;-70
2022/12/30 08:31:17;;;;;;;4.93;2.10;;;7.90;99.90;;;;;;5093462;28;20624;-71
2022/12/30 08:33:44;;;;;;;3.30;2.30;;;7.90;99.90;;;;;;5093423;28;20179;-70
2022/12/30 08:36:12;;;;;;;6.77;2.40;;;7.90;99.90;;;;;;5093054;28;20258;-69
2022/12/30 08:38:40;;;;;;;5.23;2.43;;;8.00;99.90;;;;;;5093413;28;20172;-70
2022/12/30 08:41:11;;;;;;;6.37;2.70;;;8.00;99.90;;;;;;5093071;28;20302;-70
2022/12/30 08:43:37;;;;;;;5.60;2.70;;;8.10;99.90;;;;;;5093583;28;20238;-70
2022/12/30 08:46:03;;;;;;;5.83;2.50;;;8.10;99.90;;;;;;5092884;28;20623;-70
2022/12/30 08:48:29;;;;;;;2.50;1.70;;;8.20;99.90;;;;;;5093147;28;20175;-70
2022/12/30 08:50:55;;;;;;;5.57;2.37;;;8.20;99.90;;;;;;5093014;28;20228;-70
2022/12/30 08:53:21;;;;;;;7.40;2.40;;;8.30;99.90;;;;;;5093296;28;20251;-69
2022/12/30 08:55:46;;;;;;;4.53;2.43;;;8.30;99.90;;;;;;5091402;28;20178;-71
2022/12/30 08:58:12;;;;;;;7.40;2.23;;;8.40;99.90;;;;;;5093021;28;20180;-69
2022/12/30 09:00:38;;;;;;;4.63;2.50;;;8.40;99.90;;;;;;5093054;28;20176;-71
2022/12/30 09:03:04;;;;;;;5.03;2.63;;;8.50;99.90;;;;;;5092523;28;20659;-71
2022/12/30 09:05:32;;;;;;;5.03;2.07;;;8.60;99.90;;;;;;5092966;28;20179;-69
2022/12/30 09:07:58;;;;;;;6.93;2.30;;;8.60;99.90;;;;;;5091099;28;20635;-70
2022/12/30 09:10:23;;;;;;;6.97;2.27;;;8.70;99.90;;;;;;5092608;28;20171;-71
2022/12/30 09:12:49;;;;;;;7.83;2.43;;;8.70;99.90;;;;;;5092276;28;20180;-70
2022/12/30 09:15:14;;;;;;;4.37;1.90;;;8.70;99.90;;;;;;5092971;28;20168;-71
2022/12/30 09:17:40;;;;;;;9.13;2.33;;;8.80;99.90;;;;;;5092546;28;20282;-71
2022/12/30 09:20:06;;;;;;;9.50;2.10;;;8.80;99.90;;;;;;5091657;28;20530;-71
2022/12/30 09:22:32;;;;;;;4.33;1.80;;;8.80;99.90;;;;;;5092565;28;20651;-70
2022/12/30 09:24:57;;;;;;;5.37;1.90;;;8.90;99.90;;;;;;5092625;28;20218;-71
2022/12/30 09:27:23;;;;;;;10.13;2.23;;;8.90;99.90;;;;;;5092708;28;20690;-71
2022/12/30 09:29:48;;;;;;;4.80;1.80;;;8.90;99.90;;;;;;5092712;28;20175;-71
2022/12/30 09:32:14;;;;;;;6.97;2.23;;;8.90;99.90;;;;;;5091058;28;20225;-70
2022/12/30 09:34:41;;;;;;;5.87;1.70;;;8.90;99.90;;;;;;5092585;28;20179;-71
2022/12/30 09:37:08;;;;;;;5.27;2.00;;;9.00;99.90;;;;;;5093181;28;20159;-71
2022/12/30 09:39:33;;;;;;;6.50;1.80;;;9.00;99.90;;;;;;5090825;28;20262;-70
2022/12/30 09:44:59;;;;;;;4.77;1.80;;;9.00;99.90;;;;;;5092513;28;20256;-70
2022/12/30 09:47:46;;;;;;;5.87;2.03;;;9.00;99.90;;;;;;5092251;28;20575;-70
2022/12/30 09:50:46;;;;;;;8.73;2.40;;;9.10;99.90;;;;;;5091720;28;20164;-70
2022/12/30 09:53:21;;;;;;;5.03;2.40;;;9.10;99.90;;;;;;5092588;28;20171;-70
2022/12/30 09:55:50;;;;;;;7.77;2.17;;;9.10;99.90;;;;;;5092245;28;20166;-72
2022/12/30 09:58:23;;;;;;;2.50;1.80;;;9.10;99.90;;;;;;5092862;28;20225;-70
2022/12/30 10:00:52;;;;;;;6.67;2.20;;;9.10;99.90;;;;;;5094672;28;20164;-71
2022/12/30 10:03:21;;;;;;;8.07;2.60;;;9.10;99.90;;;;;;5096193;28;20268;-70
2022/12/30 10:06:11;;;;;;;7.23;2.23;;;9.20;99.90;;;;;;5096295;28;20168;-70
2022/12/30 10:09:15;;;;;;;5.67;2.37;;;9.20;99.90;;;;;;5096029;28;20168;-70
2022/12/30 10:12:11;;;;;;;6.37;2.80;;;9.20;99.90;;;;;;5096187;28;20167;-70
2022/12/30 10:14:55;;;;;;;6.07;2.37;;;9.30;99.90;;;;;;5095860;28;20710;-71
2022/12/30 10:17:48;;;;;;;6.93;1.90;;;9.30;99.90;;;;;;5096194;28;20196;-70
2022/12/30 10:20:44;;;;;;;7.73;1.87;;;9.30;99.90;;;;;;5095896;28;20172;-70
2022/12/30 10:23:28;;;;;;;6.83;1.80;;;9.30;99.90;;;;;;5096655;28;20242;-71
2022/12/30 10:26:07;;;;;;;7.73;2.27;;;9.40;99.90;;;;;;5096149;28;20176;-69
2022/12/30 10:28:36;;;;;;;15.20;6.97;;;9.40;99.90;;;;;;5095664;28;20183;-70
2022/12/30 10:31:07;;;;;;;4.63;2.40;;;9.50;99.90;;;;;;5095018;28;20180;-69
2022/12/30 10:33:34;;;;;;;6.73;2.27;;;9.60;99.90;;;;;;5096008;28;20211;-70
2022/12/30 10:36:13;;;;;;;12.67;4.47;;;9.60;99.90;;;;;;5095882;28;20164;-70
2022/12/30 10:38:39;;;;;;;13.27;8.30;;;9.70;99.90;;;;;;5095621;28;20204;-70
2022/12/30 10:41:25;;;;;;;2.87;1.70;;;9.70;99.90;;;;;;5095328;28;20241;-70
2022/12/30 10:44:09;;;;;;;10.90;5.73;;;9.80;99.90;;;;;;5095535;28;20215;-70
2022/12/30 10:46:47;;;;;;;7.57;3.00;;;9.80;99.90;;;;;;5094967;28;20643;-70
2022/12/30 10:49:58;;;;;;;6.10;3.40;;;9.80;99.90;;;;;;5095508;28;20186;-69
2022/12/30 10:52:24;;;;;;;8.00;2.47;;;9.90;99.90;;;;;;5056204;28;20241;-70
2022/12/30 10:54:50;;;;;;;6.33;3.20;;;9.90;99.90;;;;;;5095226;28;20473;-70
2022/12/30 10:57:27;;;;;;;12.17;7.93;;;10.00;99.90;;;;;;5095108;28;20174;-70
2022/12/30 10:59:57;;;;;;;7.87;4.13;;;10.00;99.90;;;;;;5094581;28;20657;-69
2022/12/30 11:02:31;;;;;;;8.43;3.07;;;10.00;99.90;;;;;;5095079;28;20229;-71
2022/12/30 11:04:59;;;;;;;6.53;2.17;;;10.00;99.90;;;;;;5094685;28;20239;-70
2022/12/30 11:07:25;;;;;;;5.77;1.63;;;10.00;99.90;;;;;;5095187;28;20259;-69
2022/12/30 11:09:50;;;;;;;24.43;19.03;;;10.00;99.90;;;;;;5094813;28;20249;-70
2022/12/30 11:15:20;;;;;;;6.10;2.83;;;9.90;99.90;;;;;;5095210;28;20267;-69
2022/12/30 11:17:50;;;;;;;12.23;2.67;;;9.80;99.90;;;;;;5095202;28;20186;-70
2022/12/30 11:20:15;;;;;;;13.27;7.53;;;9.80;99.90;;;;;;5095174;28;20172;-70
2022/12/30 11:22:51;;;;;;;7.57;5.67;;;9.60;99.90;;;;;;5095057;28;20554;-71
2022/12/30 11:25:29;;;;;;;10.57;8.03;;;9.60;99.90;;;;;;5094559;28;20279;-71
2022/12/30 11:27:57;;;;;;;8.07;4.97;;;9.50;99.90;;;;;;5094442;28;20176;-72
2022/12/30 11:30:29;;;;;;;6.47;2.80;;;9.40;99.90;;;;;;5094478;28;20258;-72
2022/12/30 11:32:58;;;;;;;4.60;3.27;;;9.40;99.90;;;;;;5094854;28;20259;-70
2022/12/30 11:35:35;;;;;;;4.97;2.80;;;9.30;99.90;;;;;;5095247;28;20184;-72
2022/12/30 11:38:03;;;;;;;5.73;1.87;;;9.20;99.90;;;;;;5093291;28;20182;-70
2022/12/30 11:40:36;;;;;;;5.43;2.77;;;9.20;99.90;;;;;;5093580;28;20224;-70
2022/12/30 11:43:21;;;;;;;6.33;2.47;;;9.20;99.90;;;;;;5093854;28;20205;-71
2022/12/30 11:46:08;;;;;;;5.27;1.60;;;9.10;99.90;;;;;;5094454;28;20175;-71
2022/12/30 11:48:50;;;;;;;7.97;2.00;;;9.10;99.90;;;;;;5093727;28;20216;-71
2022/12/30 11:51:43;;;;;;;4.80;2.40;;;9.10;99.90;;;;;;5093988;28;20567;-70
2022/12/30 11:54:16;;;;;;;3.40;1.70;;;9.00;99.90;;;;;;5057192;28;20180;-70
2022/12/30 11:56:58;;;;;;;5.87;2.27;;;9.00;99.90;;;;;;5093251;28;20178;-69
2022/12/30 11:59:37;;;;;;;6.20;5.63;;;9.00;99.90;;;;;;5093914;28;20210;-71
2022/12/30 12:02:15;;;;;;;2.60;1.90;;;9.00;99.90;;;;;;5093854;28;20263;-71
2022/12/30 12:04:41;;;;;;;2.00;1.30;;;9.00;99.90;;;;;;5094168;28;20305;-69
2022/12/30 12:07:16;;;;;;;10.67;8.30;;;9.00;99.90;;;;;;5094650;28;20176;-69
2022/12/30 12:09:54;;;;;;;2.67;1.50;;;9.00;99.90;;;;;;5093566;28;20206;-70
2022/12/30 12:12:24;;;;;;;2.77;1.20;;;9.00;99.90;;;;;;5093408;28;20192;-69
2022/12/30 12:15:06;;;;;;;2.83;1.30;;;9.00;99.90;;;;;;5094182;28;20239;-70
2022/12/30 12:17:37;;;;;;;4.97;1.63;;;9.00;99.90;;;;;;5093731;28;20171;-69
2022/12/30 12:20:27;;;;;;;3.97;3.23;;;9.10;99.90;;;;;;5093271;28;20281;-69
2022/12/30 12:23:18;;;;;;;4.97;3.60;;;9.10;99.90;;;;;;5092873;28;20191;-70
2022/12/30 12:25:55;;;;;;;3.60;3.10;;;9.10;99.90;;;;;;5093568;28;20161;-69
2022/12/30 12:28:24;;;;;;;1.60;1.50;;;9.20;99.90;;;;;;5094195;28;20172;-69
2022/12/30 12:31:08;;;;;;;2.73;1.67;;;9.20;99.90;;;;;;5092085;28;20225;-69
2022/12/30 12:33:47;;;;;;;2.23;1.40;;;9.30;99.90;;;;;;5093441;28;20176;-69
2022/12/30 12:36:36;;;;;;;3.73;1.50;;;9.30;99.90;;;;;;5093552;28;20179;-71
2022/12/30 12:39:11;;;;;;;2.47;1.40;;;9.30;99.90;;;;;;5055955;28;20183;-70
2022/12/30 12:41:59;;;;;;;1.63;1.53;;;9.30;99.90;;;;;;5092929;28;20697;-70
2022/12/30 12:44:27;;;;;;;2.03;1.27;;;9.30;99.90;;;;;;5093387;28;20654;-71
2022/12/30 12:47:04;;;;;;;1.63;1.37;;;9.30;99.90;;;;;;5093363;28;20164;-70
2022/12/30 12:49:30;;;;;;;3.43;1.63;;;9.20;99.90;;;;;;5093464;28;20170;-71
2022/12/30 12:52:10;;;;;;;2.87;1.67;;;9.20;99.90;;;;;;5091460;28;20522;-69
2022/12/30 12:54:36;;;;;;;1.97;1.23;;;9.20;99.90;;;;;;5091859;28;20167;-70
2022/12/30 12:57:14;;;;;;;2.97;1.70;;;9.30;99.90;;;;;;5093575;28;20178;-70
2022/12/30 12:59:52;;;;;;;3.50;1.20;;;9.30;99.90;;;;;;5093077;28;20163;-71
2022/12/30 13:02:20;;;;;;;1.97;1.20;;;9.30;99.90;;;;;;5093144;28;20199;-70
2022/12/30 13:05:36;;;;;;;1.37;1.00;;;9.30;99.90;;;;;;5092927;28;20219;-70
2022/12/30 13:08:16;;;;;;;1.93;1.00;;;9.40;99.90;;;;;;5010781;28;20181;-71
2022/12/30 13:11:02;;;;;;;2.30;1.30;;;9.40;99.90;;;;;;5010356;28;20340;-70
2022/12/30 13:13:33;;;;;;;2.50;1.40;;;9.50;99.90;;;;;;5010620;28;20183;-71
2022/12/30 13:16:11;;;;;;;2.07;1.37;;;9.50;99.90;;;;;;5011006;28;20249;-69
2022/12/30 13:18:41;;;;;;;1.57;1.47;;;9.60;99.90;;;;;;4994390;28;20273;-70
2022/12/30 13:21:12;;;;;;;1.40;1.30;;;9.70;99.90;;;;;;5010591;28;20170;-70
2022/12/30 13:23:45;;;;;;;1.67;1.47;;;9.70;99.90;;;;;;5009875;28;20214;-70
2022/12/30 13:26:11;;;;;;;1.20;1.03;;;9.70;99.90;;;;;;5010831;28;20235;-71
2022/12/30 13:28:37;;;;;;;1.07;0.90;;;9.80;99.90;;;;;;5010265;28;20213;-70
2022/12/30 13:31:06;;;;;;;1.20;0.97;;;9.90;99.90;;;;;;5010760;28;20179;-70
2022/12/30 13:33:37;;;;;;;1.97;1.87;;;9.90;99.90;;;;;;5009845;28;20187;-69
2022/12/30 13:36:26;;;;;;;2.90;2.70;;;10.00;99.90;;;;;;5013702;28;20229;-71
2022/12/30 13:39:16;;;;;;;1.50;1.40;;;10.10;99.90;;;;;;5064812;28;20179;-70
2022/12/30 13:41:48;;;;;;;5.33;4.93;;;10.20;99.90;;;;;;5096354;28;20260;-71
2022/12/30 13:44:19;;;;;;;2.03;1.77;;;10.30;99.90;;;;;;5096098;28;20231;-71
2022/12/30 13:46:50;;;;;;;3.80;3.50;;;10.40;99.90;;;;;;5096420;28;20163;-71
2022/12/30 13:49:30;;;;;;;1.07;1.03;;;10.50;99.90;;;;;;5096525;28;20204;-71
2022/12/30 13:52:05;;;;;;;1.20;1.10;;;10.60;99.90;;;;;;5095879;28;20194;-71
2022/12/30 13:54:33;;;;;;;2.70;1.70;;;10.60;99.90;;;;;;5096493;28;20212;-70
2022/12/30 13:57:01;;;;;;;3.93;3.63;;;10.70;99.90;;;;;;5096153;28;20179;-70
2022/12/30 13:59:31;;;;;;;1.43;1.33;;;10.60;99.90;;;;;;5096128;28;20179;-71
2022/12/30 14:02:18;;;;;;;4.40;4.00;;;10.60;99.90;;;;;;5096041;28;20247;-70
2022/12/30 14:04:48;;;;;;;1.47;1.37;;;10.60;99.90;;;;;;5096465;28;20207;-71
2022/12/30 14:07:39;;;;;;;1.20;1.10;;;10.60;99.90;;;;;;5095584;28;20220;-71
2022/12/30 14:10:20;;;;;;;3.53;3.07;;;10.60;99.90;;;;;;5095477;28;20631;-71